UNNT/OVB METAR and TAF weather

Enter ICAO airport designator
Station Type Date Time Source
UNNT METAR 2024/06/16 09:16 UTC NOAA

UNNT 160916Z 19004MPS 9999 VCTS BKN038CB 25/18 Q1007 R25/090070 R16/////// NOSIG RMK QFE745/0994


Station Type Date Time Source
UNNT Decoded METAR 2024/06/16 09:16 UTC NOAA

Station name not available
Jun 16, 2024 - 05:16 AM EDT / 2024.06.16 0916 UTC
Wind: from the S (190 degrees) at 9 MPH (8 KT):0
Visibility: greater than 7 mile(s):0
Sky conditions: mostly cloudy
Weather: thunder in the vicinity; Cumulonimbus clouds observed
Temperature: 77 F (25 C)
Dew Point: 64 F (18 C)
Relative Humidity: 65%
Pressure (altimeter): 29.74 in. Hg (1007 hPa)
ob: UNNT 160916Z 19004MPS 9999 VCTS BKN038CB 25/18 Q1007 R25/090070 R16/////// NOSIG RMK QFE745/0994
cycle: 9

Station Type Date Time Source
UNNT TAF 2024/06/16 09:21 UTC NOAA